sensor_id;sensor_type;location;lat;lon;timestamp;temperature;humidity
7194;DHT22;3638;48.820;9.244;2022-12-26T00:04:37;10.20;99.90
7194;DHT22;3638;48.820;9.244;2022-12-26T00:07:05;10.20;99.90
7194;DHT22;3638;48.820;9.244;2022-12-26T00:14:27;10.30;99.90
7194;DHT22;3638;48.820;9.244;2022-12-26T00:16:54;10.30;99.90
7194;DHT22;3638;48.820;9.244;2022-12-26T00:24:16;10.40;99.90
7194;DHT22;3638;48.820;9.244;2022-12-26T00:26:43;10.50;99.90
7194;DHT22;3638;48.820;9.244;2022-12-26T00:29:10;10.40;99.90
7194;DHT22;3638;48.820;9.244;2022-12-26T00:31:37;10.40;99.90
7194;DHT22;3638;48.820;9.244;2022-12-26T00:36:32;10.40;99.90
7194;DHT22;3638;48.820;9.244;2022-12-26T00:39:01;10.40;99.90
7194;DHT22;3638;48.820;9.244;2022-12-26T00:41:30;10.40;99.90
7194;DHT22;3638;48.820;9.244;2022-12-26T00:46:25;10.30;99.90
7194;DHT22;3638;48.820;9.244;2022-12-26T00:48:53;10.30;99.90
7194;DHT22;3638;48.820;9.244;2022-12-26T00:51:20;10.30;99.90
7194;DHT22;3638;48.820;9.244;2022-12-26T00:53:47;10.30;99.90
7194;DHT22;3638;48.820;9.244;2022-12-26T00:56:14;10.30;99.90
7194;DHT22;3638;48.820;9.244;2022-12-26T00:58:43;10.40;99.90
7194;DHT22;3638;48.820;9.244;2022-12-26T01:01:13;10.40;99.90
7194;DHT22;3638;48.820;9.244;2022-12-26T01:03:41;10.40;99.90
7194;DHT22;3638;48.820;9.244;2022-12-26T01:06:09;10.30;99.90
7194;DHT22;3638;48.820;9.244;2022-12-26T01:08:36;10.30;99.90
7194;DHT22;3638;48.820;9.244;2022-12-26T01:11:05;10.30;99.90
7194;DHT22;3638;48.820;9.244;2022-12-26T01:13:33;10.30;99.90
7194;DHT22;3638;48.820;9.244;2022-12-26T01:16:02;10.20;99.90
7194;DHT22;3638;48.820;9.244;2022-12-26T01:18:30;10.20;99.90
7194;DHT22;3638;48.820;9.244;2022-12-26T01:20:59;10.10;99.90
7194;DHT22;3638;48.820;9.244;2022-12-26T01:23:26;10.10;99.90
7194;DHT22;3638;48.820;9.244;2022-12-26T01:25:53;10.20;99.90
7194;DHT22;3638;48.820;9.244;2022-12-26T01:33:16;10.00;99.90
7194;DHT22;3638;48.820;9.244;2022-12-26T01:35:50;10.00;99.90
7194;DHT22;3638;48.820;9.244;2022-12-26T01:38:19;10.00;99.90
7194;DHT22;3638;48.820;9.244;2022-12-26T01:40:47;10.00;99.90
7194;DHT22;3638;48.820;9.244;2022-12-26T01:43:50;10.00;99.90
7194;DHT22;3638;48.820;9.244;2022-12-26T01:46:23;10.00;99.90
7194;DHT22;3638;48.820;9.244;2022-12-26T01:48:55;10.00;99.90
7194;DHT22;3638;48.820;9.244;2022-12-26T01:51:25;10.00;99.90
7194;DHT22;3638;48.820;9.244;2022-12-26T01:53:56;10.10;99.90
7194;DHT22;3638;48.820;9.244;2022-12-26T01:56:29;10.10;99.90
7194;DHT22;3638;48.820;9.244;2022-12-26T01:59:02;10.10;99.90
7194;DHT22;3638;48.820;9.244;2022-12-26T02:01:34;10.00;99.90
7194;DHT22;3638;48.820;9.244;2022-12-26T02:04:07;10.00;99.90
7194;DHT22;3638;48.820;9.244;2022-12-26T02:06:52;10.10;99.90
7194;DHT22;3638;48.820;9.244;2022-12-26T02:09:20;10.10;99.90
7194;DHT22;3638;48.820;9.244;2022-12-26T02:11:50;10.10;99.90
7194;DHT22;3638;48.820;9.244;2022-12-26T02:14:19;10.10;99.90
7194;DHT22;3638;48.820;9.244;2022-12-26T02:16:46;10.20;99.90
7194;DHT22;3638;48.820;9.244;2022-12-26T02:19:24;10.10;99.90
7194;DHT22;3638;48.820;9.244;2022-12-26T02:22:19;10.20;99.90
7194;DHT22;3638;48.820;9.244;2022-12-26T02:25:14;10.20;99.90
7194;DHT22;3638;48.820;9.244;2022-12-26T02:28:12;10.10;99.90
7194;DHT22;3638;48.820;9.244;2022-12-26T02:30:50;10.20;99.90
7194;DHT22;3638;48.820;9.244;2022-12-26T02:33:41;10.10;99.90
7194;DHT22;3638;48.820;9.244;2022-12-26T02:36:28;10.20;99.90
7194;DHT22;3638;48.820;9.244;2022-12-26T02:39:14;10.20;99.90
7194;DHT22;3638;48.820;9.244;2022-12-26T02:41:53;10.20;99.90
7194;DHT22;3638;48.820;9.244;2022-12-26T02:44:32;10.30;99.90
7194;DHT22;3638;48.820;9.244;2022-12-26T02:47:28;10.40;99.90
7194;DHT22;3638;48.820;9.244;2022-12-26T02:50:05;10.30;99.90
7194;DHT22;3638;48.820;9.244;2022-12-26T02:53:03;10.40;99.90
7194;DHT22;3638;48.820;9.244;2022-12-26T02:55:56;10.40;99.90
7194;DHT22;3638;48.820;9.244;2022-12-26T02:58:49;10.40;99.90
7194;DHT22;3638;48.820;9.244;2022-12-26T03:01:40;10.50;99.90
7194;DHT22;3638;48.820;9.244;2022-12-26T03:04:31;10.50;99.90
7194;DHT22;3638;48.820;9.244;2022-12-26T03:07:20;10.50;99.90
7194;DHT22;3638;48.820;9.244;2022-12-26T03:10:14;10.60;99.90
7194;DHT22;3638;48.820;9.244;2022-12-26T03:13:05;10.70;99.90
7194;DHT22;3638;48.820;9.244;2022-12-26T03:15:44;10.70;99.90
7194;DHT22;3638;48.820;9.244;2022-12-26T03:18:33;10.60;99.90
7194;DHT22;3638;48.820;9.244;2022-12-26T03:21:05;10.60;99.90
7194;DHT22;3638;48.820;9.244;2022-12-26T03:23:33;10.60;99.90
7194;DHT22;3638;48.820;9.244;2022-12-26T03:26:05;10.60;99.90
7194;DHT22;3638;48.820;9.244;2022-12-26T03:28:51;10.50;99.90
7194;DHT22;3638;48.820;9.244;2022-12-26T03:34:05;10.50;99.90
7194;DHT22;3638;48.820;9.244;2022-12-26T03:36:58;10.40;99.90
7194;DHT22;3638;48.820;9.244;2022-12-26T03:39:39;10.40;99.90
7194;DHT22;3638;48.820;9.244;2022-12-26T03:42:33;10.40;99.90
7194;DHT22;3638;48.820;9.244;2022-12-26T03:45:26;10.50;99.90
7194;DHT22;3638;48.820;9.244;2022-12-26T03:48:20;10.50;99.90
7194;DHT22;3638;48.820;9.244;2022-12-26T03:51:17;10.50;99.90
7194;DHT22;3638;48.820;9.244;2022-12-26T03:54:08;10.50;99.90
7194;DHT22;3638;48.820;9.244;2022-12-26T03:56:59;10.60;99.90
7194;DHT22;3638;48.820;9.244;2022-12-26T03:59:50;10.60;99.90
7194;DHT22;3638;48.820;9.244;2022-12-26T04:02:38;10.70;99.90
7194;DHT22;3638;48.820;9.244;2022-12-26T04:08:23;10.70;99.90
7194;DHT22;3638;48.820;9.244;2022-12-26T04:11:14;10.80;99.90
7194;DHT22;3638;48.820;9.244;2022-12-26T04:14:03;10.90;99.90
7194;DHT22;3638;48.820;9.244;2022-12-26T04:16:53;10.70;99.90
7194;DHT22;3638;48.820;9.244;2022-12-26T04:19:50;10.70;99.90
7194;DHT22;3638;48.820;9.244;2022-12-26T04:22:29;10.80;99.90
7194;DHT22;3638;48.820;9.244;2022-12-26T04:25:20;10.80;99.90
7194;DHT22;3638;48.820;9.244;2022-12-26T04:28:07;10.80;99.90
7194;DHT22;3638;48.820;9.244;2022-12-26T04:30:57;10.80;99.90
7194;DHT22;3638;48.820;9.244;2022-12-26T04:33:49;10.80;99.90
7194;DHT22;3638;48.820;9.244;2022-12-26T04:36:39;10.80;99.90
7194;DHT22;3638;48.820;9.244;2022-12-26T04:39:29;10.80;99.90
7194;DHT22;3638;48.820;9.244;2022-12-26T04:42:16;10.70;99.90
7194;DHT22;3638;48.820;9.244;2022-12-26T04:45:03;10.80;99.90
7194;DHT22;3638;48.820;9.244;2022-12-26T04:47:31;10.80;99.90
7194;DHT22;3638;48.820;9.244;2022-12-26T04:50:04;10.70;99.90
7194;DHT22;3638;48.820;9.244;2022-12-26T04:52:36;10.80;99.90
7194;DHT22;3638;48.820;9.244;2022-12-26T04:55:24;10.80;99.90
7194;DHT22;3638;48.820;9.244;2022-12-26T05:00:21;10.90;99.90
7194;DHT22;3638;48.820;9.244;2022-12-26T05:02:49;10.80;99.90
7194;DHT22;3638;48.820;9.244;2022-12-26T05:05:37;10.80;99.90
7194;DHT22;3638;48.820;9.244;2022-12-26T05:08:25;10.90;99.90
7194;DHT22;3638;48.820;9.244;2022-12-26T05:16:09;10.90;99.90
7194;DHT22;3638;48.820;9.244;2022-12-26T05:18:53;7.80;99.90
7194;DHT22;3638;48.820;9.244;2022-12-26T05:21:37;10.90;99.90
7194;DHT22;3638;48.820;9.244;2022-12-26T05:24:22;10.90;99.90
7194;DHT22;3638;48.820;9.244;2022-12-26T05:27:15;10.90;99.90
7194;DHT22;3638;48.820;9.244;2022-12-26T05:32:29;11.10;99.90
7194;DHT22;3638;48.820;9.244;2022-12-26T05:35:13;11.20;99.90
7194;DHT22;3638;48.820;9.244;2022-12-26T05:37:40;11.10;99.90
7194;DHT22;3638;48.820;9.244;2022-12-26T05:40:08;11.20;99.90
7194;DHT22;3638;48.820;9.244;2022-12-26T05:42:35;11.20;99.90
7194;DHT22;3638;48.820;9.244;2022-12-26T05:45:02;11.20;99.90
7194;DHT22;3638;48.820;9.244;2022-12-26T05:47:31;11.30;99.90
7194;DHT22;3638;48.820;9.244;2022-12-26T05:49:58;11.10;99.90
7194;DHT22;3638;48.820;9.244;2022-12-26T05:52:25;11.20;99.90
7194;DHT22;3638;48.820;9.244;2022-12-26T05:54:52;11.20;99.90
7194;DHT22;3638;48.820;9.244;2022-12-26T05:57:19;11.20;99.90
7194;DHT22;3638;48.820;9.244;2022-12-26T05:59:47;11.20;99.90
7194;DHT22;3638;48.820;9.244;2022-12-26T06:02:14;11.20;99.90
7194;DHT22;3638;48.820;9.244;2022-12-26T06:04:42;11.20;99.90
7194;DHT22;3638;48.820;9.244;2022-12-26T06:07:09;11.30;99.90
7194;DHT22;3638;48.820;9.244;2022-12-26T06:09:36;11.20;99.90
7194;DHT22;3638;48.820;9.244;2022-12-26T06:12:03;11.20;99.90
7194;DHT22;3638;48.820;9.244;2022-12-26T06:19:25;11.20;99.90
7194;DHT22;3638;48.820;9.244;2022-12-26T06:21:53;11.30;99.90
7194;DHT22;3638;48.820;9.244;2022-12-26T06:24:20;11.30;99.90
7194;DHT22;3638;48.820;9.244;2022-12-26T06:29:15;11.30;99.90
7194;DHT22;3638;48.820;9.244;2022-12-26T06:31:41;11.20;99.90
7194;DHT22;3638;48.820;9.244;2022-12-26T06:34:10;11.20;99.90
7194;DHT22;3638;48.820;9.244;2022-12-26T06:36:38;11.30;99.90
7194;DHT22;3638;48.820;9.244;2022-12-26T06:39:06;12.70;99.90
7194;DHT22;3638;48.820;9.244;2022-12-26T06:41:33;11.30;99.90
7194;DHT22;3638;48.820;9.244;2022-12-26T06:46:27;11.40;99.90
7194;DHT22;3638;48.820;9.244;2022-12-26T06:48:54;11.40;99.90
7194;DHT22;3638;48.820;9.244;2022-12-26T06:51:22;11.40;99.90
7194;DHT22;3638;48.820;9.244;2022-12-26T06:53:51;11.50;99.90
7194;DHT22;3638;48.820;9.244;2022-12-26T06:56:22;11.50;99.90
7194;DHT22;3638;48.820;9.244;2022-12-26T06:58:52;11.50;99.90
7194;DHT22;3638;48.820;9.244;2022-12-26T07:01:20;11.50;99.90
7194;DHT22;3638;48.820;9.244;2022-12-26T07:03:47;11.40;99.90
7194;DHT22;3638;48.820;9.244;2022-12-26T07:06:21;11.40;99.90
7194;DHT22;3638;48.820;9.244;2022-12-26T07:08:49;11.40;99.90
7194;DHT22;3638;48.820;9.244;2022-12-26T07:11:18;11.40;99.90
7194;DHT22;3638;48.820;9.244;2022-12-26T07:13:49;11.40;99.90
7194;DHT22;3638;48.820;9.244;2022-12-26T07:16:16;11.40;99.90
7194;DHT22;3638;48.820;9.244;2022-12-26T07:21:12;11.30;99.90
7194;DHT22;3638;48.820;9.244;2022-12-26T07:23:40;11.30;99.90
7194;DHT22;3638;48.820;9.244;2022-12-26T07:26:07;11.30;99.90
7194;DHT22;3638;48.820;9.244;2022-12-26T07:28:36;11.40;99.90
7194;DHT22;3638;48.820;9.244;2022-12-26T07:31:03;11.40;99.90
7194;DHT22;3638;48.820;9.244;2022-12-26T07:33:30;11.30;99.90
7194;DHT22;3638;48.820;9.244;2022-12-26T07:35:59;11.30;99.90
7194;DHT22;3638;48.820;9.244;2022-12-26T07:38:26;11.30;99.90
7194;DHT22;3638;48.820;9.244;2022-12-26T07:40:54;11.20;99.90
7194;DHT22;3638;48.820;9.244;2022-12-26T07:43:22;11.20;99.90
7194;DHT22;3638;48.820;9.244;2022-12-26T07:45:50;11.20;99.90
7194;DHT22;3638;48.820;9.244;2022-12-26T07:48:17;11.30;99.90
7194;DHT22;3638;48.820;9.244;2022-12-26T07:50:44;11.20;99.90
7194;DHT22;3638;48.820;9.244;2022-12-26T07:53:14;11.30;99.90
7194;DHT22;3638;48.820;9.244;2022-12-26T07:55:41;11.30;99.90
7194;DHT22;3638;48.820;9.244;2022-12-26T07:58:08;11.40;99.90
7194;DHT22;3638;48.820;9.244;2022-12-26T08:03:03;11.40;99.90
7194;DHT22;3638;48.820;9.244;2022-12-26T08:05:30;11.50;99.90
7194;DHT22;3638;48.820;9.244;2022-12-26T08:12:51;11.40;99.90
7194;DHT22;3638;48.820;9.244;2022-12-26T08:15:18;11.40;99.90
7194;DHT22;3638;48.820;9.244;2022-12-26T08:20:14;11.30;99.90
7194;DHT22;3638;48.820;9.244;2022-12-26T08:25:09;11.30;99.90
7194;DHT22;3638;48.820;9.244;2022-12-26T08:30:04;11.20;99.90
7194;DHT22;3638;48.820;9.244;2022-12-26T08:32:31;11.10;99.90
7194;DHT22;3638;48.820;9.244;2022-12-26T08:37:27;11.10;99.90
7194;DHT22;3638;48.820;9.244;2022-12-26T08:42:21;10.90;99.90
7194;DHT22;3638;48.820;9.244;2022-12-26T08:54:38;10.80;99.90
7194;DHT22;3638;48.820;9.244;2022-12-26T08:59:33;10.80;99.90
7194;DHT22;3638;48.820;9.244;2022-12-26T09:06:54;10.70;99.90
7194;DHT22;3638;48.820;9.244;2022-12-26T09:14:18;10.60;99.90
7194;DHT22;3638;48.820;9.244;2022-12-26T09:19:14;10.50;99.90
7194;DHT22;3638;48.820;9.244;2022-12-26T09:21:42;10.60;99.90
7194;DHT22;3638;48.820;9.244;2022-12-26T09:24:11;10.60;99.90
7194;DHT22;3638;48.820;9.244;2022-12-26T09:26:40;10.70;99.90
7194;DHT22;3638;48.820;9.244;2022-12-26T09:29:10;10.70;99.90
7194;DHT22;3638;48.820;9.244;2022-12-26T09:34:05;11.00;99.90
7194;DHT22;3638;48.820;9.244;2022-12-26T09:36:35;11.00;99.90
7194;DHT22;3638;48.820;9.244;2022-12-26T09:39:04;11.00;99.90
7194;DHT22;3638;48.820;9.244;2022-12-26T09:41:49;10.80;99.90
7194;DHT22;3638;48.820;9.244;2022-12-26T09:44:33;10.60;99.90
7194;DHT22;3638;48.820;9.244;2022-12-26T09:47:16;10.30;99.90
7194;DHT22;3638;48.820;9.244;2022-12-26T09:49:54;10.30;99.90
7194;DHT22;3638;48.820;9.244;2022-12-26T09:52:30;10.10;99.90
7194;DHT22;3638;48.820;9.244;2022-12-26T09:57:56;9.90;99.90
7194;DHT22;3638;48.820;9.244;2022-12-26T10:00:29;10.00;99.90
7194;DHT22;3638;48.820;9.244;2022-12-26T10:02:59;10.00;99.90
7194;DHT22;3638;48.820;9.244;2022-12-26T10:05:31;10.00;99.90
7194;DHT22;3638;48.820;9.244;2022-12-26T10:08:04;10.10;99.90
7194;DHT22;3638;48.820;9.244;2022-12-26T10:10:45;10.20;99.90
7194;DHT22;3638;48.820;9.244;2022-12-26T10:13:20;10.20;99.90
7194;DHT22;3638;48.820;9.244;2022-12-26T10:15:59;10.20;99.90
7194;DHT22;3638;48.820;9.244;2022-12-26T10:18:40;10.20;99.90
7194;DHT22;3638;48.820;9.244;2022-12-26T10:21:24;10.30;99.90
7194;DHT22;3638;48.820;9.244;2022-12-26T10:23:59;10.30;99.90
7194;DHT22;3638;48.820;9.244;2022-12-26T10:26:32;10.40;99.90
7194;DHT22;3638;48.820;9.244;2022-12-26T10:29:09;10.40;99.90
7194;DHT22;3638;48.820;9.244;2022-12-26T10:31:45;10.30;99.90
7194;DHT22;3638;48.820;9.244;2022-12-26T10:34:17;10.30;99.90
7194;DHT22;3638;48.820;9.244;2022-12-26T10:36:48;10.20;99.90
7194;DHT22;3638;48.820;9.244;2022-12-26T10:39:20;10.20;99.90
7194;DHT22;3638;48.820;9.244;2022-12-26T10:41:51;10.20;99.90
7194;DHT22;3638;48.820;9.244;2022-12-26T10:44:19;10.20;99.90
7194;DHT22;3638;48.820;9.244;2022-12-26T10:47:04;10.20;99.90
7194;DHT22;3638;48.820;9.244;2022-12-26T10:49:36;10.20;99.90
7194;DHT22;3638;48.820;9.244;2022-12-26T10:52:03;10.20;99.90
7194;DHT22;3638;48.820;9.244;2022-12-26T10:54:31;10.30;99.90
7194;DHT22;3638;48.820;9.244;2022-12-26T10:59:34;10.20;99.90
7194;DHT22;3638;48.820;9.244;2022-12-26T11:02:22;10.40;99.90
7194;DHT22;3638;48.820;9.244;2022-12-26T11:05:00;10.40;99.90
7194;DHT22;3638;48.820;9.244;2022-12-26T11:07:31;10.30;99.90
7194;DHT22;3638;48.820;9.244;2022-12-26T11:12:38;10.40;99.90
7194;DHT22;3638;48.820;9.244;2022-12-26T11:15:18;10.40;99.90
7194;DHT22;3638;48.820;9.244;2022-12-26T11:17:51;10.50;99.90
7194;DHT22;3638;48.820;9.244;2022-12-26T11:20:29;10.50;99.90
7194;DHT22;3638;48.820;9.244;2022-12-26T11:23:25;10.40;99.90
7194;DHT22;3638;48.820;9.244;2022-12-26T11:25:56;10.40;99.90
7194;DHT22;3638;48.820;9.244;2022-12-26T11:28:34;10.40;99.90
7194;DHT22;3638;48.820;9.244;2022-12-26T11:31:04;10.40;99.90
7194;DHT22;3638;48.820;9.244;2022-12-26T11:33:35;10.40;99.90
7194;DHT22;3638;48.820;9.244;2022-12-26T11:36:10;12.50;99.90
7194;DHT22;3638;48.820;9.244;2022-12-26T11:38:47;10.40;99.90
7194;DHT22;3638;48.820;9.244;2022-12-26T11:41:19;10.50;99.90
7194;DHT22;3638;48.820;9.244;2022-12-26T11:44:12;10.50;99.90
7194;DHT22;3638;48.820;9.244;2022-12-26T11:49:21;10.40;99.90
7194;DHT22;3638;48.820;9.244;2022-12-26T11:51:52;10.50;99.90
7194;DHT22;3638;48.820;9.244;2022-12-26T11:54:23;10.50;99.90
7194;DHT22;3638;48.820;9.244;2022-12-26T11:57:14;10.50;99.90
7194;DHT22;3638;48.820;9.244;2022-12-26T12:02:20;10.50;99.90
7194;DHT22;3638;48.820;9.244;2022-12-26T12:04:54;10.50;99.90
7194;DHT22;3638;48.820;9.244;2022-12-26T12:07:51;10.60;99.90
7194;DHT22;3638;48.820;9.244;2022-12-26T12:10:51;10.60;99.90
7194;DHT22;3638;48.820;9.244;2022-12-26T12:13:35;10.70;99.90
7194;DHT22;3638;48.820;9.244;2022-12-26T12:16:34;10.70;99.90
7194;DHT22;3638;48.820;9.244;2022-12-26T12:19:20;10.80;99.90
7194;DHT22;3638;48.820;9.244;2022-12-26T12:22:26;11.00;99.90
7194;DHT22;3638;48.820;9.244;2022-12-26T12:25:21;11.00;99.90
7194;DHT22;3638;48.820;9.244;2022-12-26T12:27:58;11.00;99.90
7194;DHT22;3638;48.820;9.244;2022-12-26T12:30:34;11.10;99.90
7194;DHT22;3638;48.820;9.244;2022-12-26T12:33:21;11.00;99.90
7194;DHT22;3638;48.820;9.244;2022-12-26T12:36:02;11.10;99.90
7194;DHT22;3638;48.820;9.244;2022-12-26T12:41:41;11.10;99.90
7194;DHT22;3638;48.820;9.244;2022-12-26T12:44:32;11.10;99.90
7194;DHT22;3638;48.820;9.244;2022-12-26T12:47:14;11.00;99.90
7194;DHT22;3638;48.820;9.244;2022-12-26T12:49:52;11.10;99.90
7194;DHT22;3638;48.820;9.244;2022-12-26T12:52:37;11.00;99.90
7194;DHT22;3638;48.820;9.244;2022-12-26T12:55:30;11.00;99.90
7194;DHT22;3638;48.820;9.244;2022-12-26T12:58:09;10.90;99.90
7194;DHT22;3638;48.820;9.244;2022-12-26T13:00:44;10.90;99.90
7194;DHT22;3638;48.820;9.244;2022-12-26T13:03:26;10.90;99.90
7194;DHT22;3638;48.820;9.244;2022-12-26T13:06:02;10.90;99.90
7194;DHT22;3638;48.820;9.244;2022-12-26T13:08:39;10.90;99.90
7194;DHT22;3638;48.820;9.244;2022-12-26T13:11:12;10.90;99.90
7194;DHT22;3638;48.820;9.244;2022-12-26T13:13:45;11.00;99.90
7194;DHT22;3638;48.820;9.244;2022-12-26T13:16:16;11.00;99.90
7194;DHT22;3638;48.820;9.244;2022-12-26T13:18:49;10.90;99.90
7194;DHT22;3638;48.820;9.244;2022-12-26T13:21:18;10.90;99.90
7194;DHT22;3638;48.820;9.244;2022-12-26T13:23:48;11.20;99.90
7194;DHT22;3638;48.820;9.244;2022-12-26T13:26:56;10.90;99.90
7194;DHT22;3638;48.820;9.244;2022-12-26T13:29:36;10.70;99.90
7194;DHT22;3638;48.820;9.244;2022-12-26T13:32:14;11.00;99.90
7194;DHT22;3638;48.820;9.244;2022-12-26T13:34:43;10.90;99.90
7194;DHT22;3638;48.820;9.244;2022-12-26T13:40:24;10.90;99.90
7194;DHT22;3638;48.820;9.244;2022-12-26T13:42:57;11.00;99.90
7194;DHT22;3638;48.820;9.244;2022-12-26T13:45:50;10.90;99.90
7194;DHT22;3638;48.820;9.244;2022-12-26T13:51:52;10.90;99.90
7194;DHT22;3638;48.820;9.244;2022-12-26T13:54:21;11.20;99.90
7194;DHT22;3638;48.820;9.244;2022-12-26T14:06:13;11.00;99.90
7194;DHT22;3638;48.820;9.244;2022-12-26T14:09:04;10.90;99.90
7194;DHT22;3638;48.820;9.244;2022-12-26T14:11:50;11.00;99.90
7194;DHT22;3638;48.820;9.244;2022-12-26T14:14:32;10.90;99.90
7194;DHT22;3638;48.820;9.244;2022-12-26T14:17:19;10.80;99.90
7194;DHT22;3638;48.820;9.244;2022-12-26T14:19:58;10.80;99.90
7194;DHT22;3638;48.820;9.244;2022-12-26T14:22:37;10.80;99.90
7194;DHT22;3638;48.820;9.244;2022-12-26T14:25:17;10.80;99.90
7194;DHT22;3638;48.820;9.244;2022-12-26T14:27:54;10.80;99.90
7194;DHT22;3638;48.820;9.244;2022-12-26T14:30:29;10.90;99.90
7194;DHT22;3638;48.820;9.244;2022-12-26T14:33:17;10.80;99.90
7194;DHT22;3638;48.820;9.244;2022-12-26T14:35:57;10.70;99.90
7194;DHT22;3638;48.820;9.244;2022-12-26T14:38:39;10.70;99.90
7194;DHT22;3638;48.820;9.244;2022-12-26T14:41:11;10.70;99.90
7194;DHT22;3638;48.820;9.244;2022-12-26T14:44:09;10.70;99.90
7194;DHT22;3638;48.820;9.244;2022-12-26T14:46:57;10.70;99.90
7194;DHT22;3638;48.820;9.244;2022-12-26T14:49:38;10.70;99.90
7194;DHT22;3638;48.820;9.244;2022-12-26T14:52:35;10.70;99.90
7194;DHT22;3638;48.820;9.244;2022-12-26T14:55:40;10.80;99.90
7194;DHT22;3638;48.820;9.244;2022-12-26T14:58:29;10.70;99.90
7194;DHT22;3638;48.820;9.244;2022-12-26T15:01:42;10.80;99.90
7194;DHT22;3638;48.820;9.244;2022-12-26T15:04:43;10.80;99.90
7194;DHT22;3638;48.820;9.244;2022-12-26T15:10:58;10.70;99.90
7194;DHT22;3638;48.820;9.244;2022-12-26T15:14:21;10.60;99.90
7194;DHT22;3638;48.820;9.244;2022-12-26T15:17:09;10.60;99.90
7194;DHT22;3638;48.820;9.244;2022-12-26T15:23:30;10.50;99.90
7194;DHT22;3638;48.820;9.244;2022-12-26T15:32:36;10.40;99.90
7194;DHT22;3638;48.820;9.244;2022-12-26T15:35:17;10.30;99.90
7194;DHT22;3638;48.820;9.244;2022-12-26T15:38:04;10.40;99.90
7194;DHT22;3638;48.820;9.244;2022-12-26T15:40:43;10.40;99.90
7194;DHT22;3638;48.820;9.244;2022-12-26T15:43:33;10.30;99.90
7194;DHT22;3638;48.820;9.244;2022-12-26T15:46:16;10.40;99.90
7194;DHT22;3638;48.820;9.244;2022-12-26T15:49:11;10.40;99.90
7194;DHT22;3638;48.820;9.244;2022-12-26T15:52:00;10.50;99.90
7194;DHT22;3638;48.820;9.244;2022-12-26T15:57:41;10.50;99.90
7194;DHT22;3638;48.820;9.244;2022-12-26T16:00:16;10.50;99.90
7194;DHT22;3638;48.820;9.244;2022-12-26T16:02:46;10.40;99.90
7194;DHT22;3638;48.820;9.244;2022-12-26T16:05:44;10.40;99.90
7194;DHT22;3638;48.820;9.244;2022-12-26T16:11:20;10.30;99.90
7194;DHT22;3638;48.820;9.244;2022-12-26T16:13:56;10.30;99.90
7194;DHT22;3638;48.820;9.244;2022-12-26T16:16:28;12.20;99.90
7194;DHT22;3638;48.820;9.244;2022-12-26T16:18:56;10.20;99.90
7194;DHT22;3638;48.820;9.244;2022-12-26T16:21:26;10.20;99.90
7194;DHT22;3638;48.820;9.244;2022-12-26T16:24:12;10.30;99.90
7194;DHT22;3638;48.820;9.244;2022-12-26T16:26:45;10.20;99.90
7194;DHT22;3638;48.820;9.244;2022-12-26T16:29:16;10.30;99.90
7194;DHT22;3638;48.820;9.244;2022-12-26T16:34:15;10.30;99.90
7194;DHT22;3638;48.820;9.244;2022-12-26T16:36:44;10.30;99.90
7194;DHT22;3638;48.820;9.244;2022-12-26T16:44:34;10.30;99.90
7194;DHT22;3638;48.820;9.244;2022-12-26T16:47:08;10.40;99.90
7194;DHT22;3638;48.820;9.244;2022-12-26T16:54:37;10.30;99.90
7194;DHT22;3638;48.820;9.244;2022-12-26T16:57:11;10.20;99.90
7194;DHT22;3638;48.820;9.244;2022-12-26T16:59:47;10.20;99.90
7194;DHT22;3638;48.820;9.244;2022-12-26T17:02:22;10.20;99.90
7194;DHT22;3638;48.820;9.244;2022-12-26T17:04:55;10.20;99.90
7194;DHT22;3638;48.820;9.244;2022-12-26T17:07:25;10.20;99.90
7194;DHT22;3638;48.820;9.244;2022-12-26T17:09:55;10.10;99.90
7194;DHT22;3638;48.820;9.244;2022-12-26T17:12:27;10.10;99.90
7194;DHT22;3638;48.820;9.244;2022-12-26T17:14:58;10.10;99.90
7194;DHT22;3638;48.820;9.244;2022-12-26T17:47:01;10.00;99.90
7194;DHT22;3638;48.820;9.244;2022-12-26T18:09:23;10.00;99.90
7194;DHT22;3638;48.820;9.244;2022-12-26T18:19:16;9.80;99.90
7194;DHT22;3638;48.820;9.244;2022-12-26T18:36:32;9.50;99.90
7194;DHT22;3638;48.820;9.244;2022-12-26T18:39:02;9.50;99.90
7194;DHT22;3638;48.820;9.244;2022-12-26T18:46:26;9.40;99.90
7194;DHT22;3638;48.820;9.244;2022-12-26T18:56:21;9.30;99.90
7194;DHT22;3638;48.820;9.244;2022-12-26T18:58:49;9.20;99.90
7194;DHT22;3638;48.820;9.244;2022-12-26T19:01:18;9.10;99.90
7194;DHT22;3638;48.820;9.244;2022-12-26T19:06:14;9.00;99.90
7194;DHT22;3638;48.820;9.244;2022-12-26T19:33:21;8.90;99.90
7194;DHT22;3638;48.820;9.244;2022-12-26T19:35:54;8.90;99.90
7194;DHT22;3638;48.820;9.244;2022-12-26T19:38:21;8.80;99.90
7194;DHT22;3638;48.820;9.244;2022-12-26T19:48:12;8.90;99.90
7194;DHT22;3638;48.820;9.244;2022-12-26T19:58:02;8.90;99.90
7194;DHT22;3638;48.820;9.244;2022-12-26T20:02:56;9.00;99.90
7194;DHT22;3638;48.820;9.244;2022-12-26T20:05:24;9.00;99.90
7194;DHT22;3638;48.820;9.244;2022-12-26T20:10:19;8.90;99.90
7194;DHT22;3638;48.820;9.244;2022-12-26T20:12:45;8.90;99.90
7194;DHT22;3638;48.820;9.244;2022-12-26T20:15:12;8.90;99.90
7194;DHT22;3638;48.820;9.244;2022-12-26T20:17:39;8.90;99.90
7194;DHT22;3638;48.820;9.244;2022-12-26T20:20:07;8.90;99.90
7194;DHT22;3638;48.820;9.244;2022-12-26T20:22:36;8.80;99.90
7194;DHT22;3638;48.820;9.244;2022-12-26T20:25:03;8.80;99.90
7194;DHT22;3638;48.820;9.244;2022-12-26T20:30:01;8.70;99.90
7194;DHT22;3638;48.820;9.244;2022-12-26T20:32:29;8.70;99.90
7194;DHT22;3638;48.820;9.244;2022-12-26T20:39:52;8.70;99.90
7194;DHT22;3638;48.820;9.244;2022-12-26T20:44:46;8.70;99.90
7194;DHT22;3638;48.820;9.244;2022-12-26T20:47:13;8.80;99.90
7194;DHT22;3638;48.820;9.244;2022-12-26T20:57:05;8.80;99.90
7194;DHT22;3638;48.820;9.244;2022-12-26T20:59:32;8.70;99.90
7194;DHT22;3638;48.820;9.244;2022-12-26T21:04:26;8.60;99.90
7194;DHT22;3638;48.820;9.244;2022-12-26T21:06:53;8.60;99.90
7194;DHT22;3638;48.820;9.244;2022-12-26T21:09:20;8.60;99.90
7194;DHT22;3638;48.820;9.244;2022-12-26T21:11:47;8.60;99.90
7194;DHT22;3638;48.820;9.244;2022-12-26T21:14:19;8.60;99.90
7194;DHT22;3638;48.820;9.244;2022-12-26T21:16:49;8.60;99.90
7194;DHT22;3638;48.820;9.244;2022-12-26T21:19:17;8.60;99.90
7194;DHT22;3638;48.820;9.244;2022-12-26T21:21:46;8.60;99.90
7194;DHT22;3638;48.820;9.244;2022-12-26T21:24:18;8.60;99.90
7194;DHT22;3638;48.820;9.244;2022-12-26T21:26:46;8.50;99.90
7194;DHT22;3638;48.820;9.244;2022-12-26T21:29:17;8.60;99.90
7194;DHT22;3638;48.820;9.244;2022-12-26T21:31:46;8.60;99.90
7194;DHT22;3638;48.820;9.244;2022-12-26T21:34:15;8.60;99.90
7194;DHT22;3638;48.820;9.244;2022-12-26T21:36:44;8.60;99.90
7194;DHT22;3638;48.820;9.244;2022-12-26T21:39:34;8.50;99.90
7194;DHT22;3638;48.820;9.244;2022-12-26T21:42:02;8.50;99.90
7194;DHT22;3638;48.820;9.244;2022-12-26T21:44:32;12.00;99.90
7194;DHT22;3638;48.820;9.244;2022-12-26T21:47:00;8.50;99.90
7194;DHT22;3638;48.820;9.244;2022-12-26T21:57:06;8.50;99.90
7194;DHT22;3638;48.820;9.244;2022-12-26T21:59:34;8.40;99.90
7194;DHT22;3638;48.820;9.244;2022-12-26T22:02:19;8.50;99.90
7194;DHT22;3638;48.820;9.244;2022-12-26T22:05:04;8.40;99.90
7194;DHT22;3638;48.820;9.244;2022-12-26T22:07:32;8.40;99.90
7194;DHT22;3638;48.820;9.244;2022-12-26T22:10:00;8.30;99.90
7194;DHT22;3638;48.820;9.244;2022-12-26T22:15:13;8.20;99.90
7194;DHT22;3638;48.820;9.244;2022-12-26T22:17:54;8.20;99.90
7194;DHT22;3638;48.820;9.244;2022-12-26T22:20:22;8.10;99.90
7194;DHT22;3638;48.820;9.244;2022-12-26T22:22:48;8.00;99.90